createdAt,value
2022-11-07T00:00:55.824Z,9.07
2022-11-07T00:05:57.701Z,9.14
2022-11-07T00:11:03.673Z,9.22
2022-11-07T00:16:08.547Z,9.25
2022-11-07T00:21:10.903Z,9.24
2022-11-07T00:26:14.836Z,9.25
2022-11-07T00:31:18.347Z,9.30
2022-11-07T00:36:23.296Z,9.33
2022-11-07T00:41:25.582Z,9.35
2022-11-07T00:46:27.385Z,9.34
2022-11-07T00:51:29.465Z,9.32
2022-11-07T00:56:31.274Z,9.33
2022-11-07T01:01:33.849Z,9.33
2022-11-07T01:06:38.993Z,9.26
2022-11-07T01:11:42.281Z,9.19
2022-11-07T01:16:44.564Z,9.16
2022-11-07T01:21:46.647Z,9.14
2022-11-07T01:26:48.950Z,9.14
2022-11-07T01:31:51.016Z,9.13
2022-11-07T01:37:02.209Z,9.11
2022-11-07T01:42:04.615Z,9.10
2022-11-07T01:47:07.627Z,9.13
2022-11-07T01:52:23.308Z,9.13
2022-11-07T01:57:40.461Z,9.11
2022-11-07T02:02:44.340Z,9.11
2022-11-07T02:07:47.153Z,9.12
2022-11-07T02:12:49.336Z,9.13
2022-11-07T02:17:51.225Z,9.11
2022-11-07T02:23:44.408Z,9.12
2022-11-07T02:28:48.547Z,9.14
2022-11-07T02:33:50.733Z,9.16
2022-11-07T02:38:58.891Z,9.15
2022-11-07T02:44:05.752Z,9.16
2022-11-07T02:49:07.631Z,9.18
2022-11-07T02:54:09.490Z,9.18
2022-11-07T02:59:11.315Z,9.16
2022-11-07T03:04:13.246Z,9.14
2022-11-07T03:09:15.153Z,9.12
2022-11-07T03:14:17.204Z,9.07
2022-11-07T03:19:18.978Z,9.06
2022-11-07T03:24:21.170Z,9.09
2022-11-07T03:29:23.044Z,9.11
2022-11-07T03:34:24.918Z,9.04
2022-11-07T03:39:26.687Z,8.91
2022-11-07T03:44:28.574Z,8.77
2022-11-07T03:49:30.324Z,8.70
2022-11-07T03:54:32.080Z,8.62
2022-11-07T03:59:33.904Z,8.56
2022-11-07T04:04:35.781Z,8.42
2022-11-07T04:09:37.515Z,8.24
2022-11-07T04:14:58.273Z,8.04
2022-11-07T04:20:00.154Z,7.85
2022-11-07T04:25:02.026Z,7.71
2022-11-07T04:30:19.309Z,7.57
2022-11-07T04:35:24.303Z,7.42
2022-11-07T04:40:27.124Z,7.34
2022-11-07T04:45:28.990Z,7.31
2022-11-07T04:50:31.277Z,7.33
2022-11-07T04:55:33.106Z,7.35
2022-11-07T05:00:34.852Z,7.33
2022-11-07T05:05:36.811Z,7.31
2022-11-07T05:10:38.887Z,7.31
2022-11-07T05:15:41.277Z,7.32
2022-11-07T05:20:43.028Z,7.32
2022-11-07T05:25:50.358Z,7.29
2022-11-07T05:30:52.231Z,7.28
2022-11-07T05:35:54.362Z,7.28
2022-11-07T05:40:56.194Z,7.28
2022-11-07T05:46:01.757Z,7.27
2022-11-07T05:51:05.695Z,7.28
2022-11-07T05:56:07.557Z,7.39
2022-11-07T06:01:09.333Z,7.54
2022-11-07T06:06:11.133Z,7.66
2022-11-07T06:11:12.988Z,7.76
2022-11-07T06:16:14.967Z,7.84
2022-11-07T06:21:17.254Z,7.92
2022-11-07T06:26:19.129Z,8.00
2022-11-07T06:31:22.189Z,8.05
2022-11-07T06:36:24.007Z,8.14
2022-11-07T06:41:25.856Z,8.21
2022-11-07T06:46:27.763Z,8.28
2022-11-07T06:51:29.645Z,8.34
2022-11-07T06:56:31.446Z,8.40
2022-11-07T07:01:33.413Z,8.48
2022-11-07T07:06:35.375Z,8.57
2022-11-07T07:11:38.002Z,8.65
2022-11-07T07:16:39.956Z,8.73
2022-11-07T07:21:41.701Z,8.79
2022-11-07T07:26:43.504Z,8.85
2022-11-07T07:31:46.609Z,8.92
2022-11-07T07:36:48.794Z,9.02
2022-11-07T07:41:50.979Z,9.13
2022-11-07T07:46:54.906Z,9.22
2022-11-07T07:51:56.787Z,9.35
2022-11-07T07:56:58.660Z,9.46
2022-11-07T08:02:00.680Z,9.51
2022-11-07T08:07:03.127Z,9.52
2022-11-07T08:12:06.544Z,9.53
2022-11-07T08:17:08.433Z,9.59
2022-11-07T08:22:11.560Z,9.70
2022-11-07T08:27:13.509Z,9.81
2022-11-07T08:32:15.620Z,9.96
2022-11-07T08:37:17.467Z,10.08
2022-11-07T08:42:19.272Z,10.17
2022-11-07T08:47:21.318Z,10.23
2022-11-07T08:52:23.198Z,10.22
2022-11-07T08:57:24.948Z,10.23
2022-11-07T09:03:08.518Z,10.32
2022-11-07T09:07:49.260Z,10.38
2022-11-07T09:12:52.415Z,10.40
2022-11-07T09:17:54.296Z,10.41
2022-11-07T09:22:57.674Z,10.50
2022-11-07T09:28:03.236Z,10.59
2022-11-07T09:33:05.151Z,10.61
2022-11-07T09:38:06.928Z,10.45
2022-11-07T09:43:18.196Z,10.37
2022-11-07T09:48:24.405Z,10.37
2022-11-07T09:53:33.366Z,10.54
2022-11-07T09:58:41.060Z,10.89
2022-11-07T10:04:10.173Z,11.06
2022-11-07T10:09:22.479Z,11.03
2022-11-07T10:15:01.646Z,10.98
2022-11-07T10:20:24.917Z,11.11
2022-11-07T10:25:37.768Z,11.38
2022-11-07T10:30:40.980Z,11.70
2022-11-07T10:35:48.064Z,11.87
2022-11-07T10:40:51.687Z,12.01
2022-11-07T10:45:55.736Z,12.15
2022-11-07T10:50:58.204Z,12.24
2022-11-07T10:56:00.622Z,12.30
2022-11-07T11:01:06.228Z,12.53
2022-11-07T11:06:20.833Z,12.74
2022-11-07T11:11:33.860Z,12.71
2022-11-07T11:16:38.654Z,12.81
2022-11-07T11:21:46.043Z,12.87
2022-11-07T11:26:50.475Z,12.97
2022-11-07T11:31:55.104Z,13.01
2022-11-07T11:37:05.889Z,13.12
2022-11-07T11:42:21.291Z,13.12
2022-11-07T11:47:34.202Z,13.21
2022-11-07T11:52:36.733Z,13.39
2022-11-07T11:57:54.463Z,13.47
2022-11-07T12:03:35.046Z,13.47
2022-11-07T12:09:23.374Z,13.47
2022-11-07T12:14:57.423Z,13.55
2022-11-07T12:20:23.085Z,13.64
2022-11-07T12:25:49.512Z,13.75
2022-11-07T12:30:51.309Z,13.81
2022-11-07T12:36:00.457Z,13.99
2022-11-07T12:41:25.273Z,13.95
2022-11-07T12:46:37.952Z,14.09
2022-11-07T12:52:14.188Z,14.22
2022-11-07T12:57:20.650Z,14.00
2022-11-07T13:02:43.806Z,13.59
2022-11-07T13:07:51.440Z,13.26
2022-11-07T13:13:05.213Z,12.98
2022-11-07T13:18:39.052Z,13.08
2022-11-07T13:23:41.744Z,13.72
2022-11-07T13:28:56.213Z,14.04
2022-11-07T13:34:11.427Z,14.10
2022-11-07T13:39:14.855Z,14.04
2022-11-07T13:44:28.467Z,13.68
2022-11-07T13:49:44.620Z,13.55
2022-11-07T13:54:53.973Z,13.60
2022-11-07T14:00:01.187Z,13.66
2022-11-07T14:05:21.048Z,13.67
2022-11-07T14:10:26.739Z,13.66
2022-11-07T14:15:30.642Z,13.50
2022-11-07T14:20:32.529Z,13.35
2022-11-07T14:25:35.711Z,13.13
2022-11-07T14:30:41.469Z,13.07
2022-11-07T14:35:46.775Z,12.97
2022-11-07T14:40:50.764Z,12.83
2022-11-07T14:46:17.625Z,12.72
2022-11-07T14:51:24.854Z,12.60
2022-11-07T14:56:32.953Z,12.33
2022-11-07T15:01:34.868Z,11.99
2022-11-07T15:06:42.931Z,11.67
2022-11-07T15:11:58.585Z,11.33
2022-11-07T15:17:04.260Z,10.98
2022-11-07T15:22:06.206Z,10.63
2022-11-07T15:27:13.810Z,10.33
2022-11-07T15:32:19.059Z,10.08
2022-11-07T15:37:23.313Z,9.83
2022-11-07T15:42:25.176Z,9.61
2022-11-07T15:47:27.155Z,9.44
2022-11-07T15:52:29.040Z,9.27
2022-11-07T15:57:31.611Z,9.13
2022-11-07T16:02:34.632Z,9.02
2022-11-07T16:07:37.081Z,8.90
2022-11-07T16:12:38.819Z,8.87
2022-11-07T16:17:40.875Z,8.84
2022-11-07T16:22:46.939Z,8.85
2022-11-07T16:27:59.212Z,8.83
2022-11-07T16:33:01.050Z,8.78
2022-11-07T16:38:11.518Z,8.75
2022-11-07T16:43:13.405Z,8.73
2022-11-07T16:48:22.720Z,8.69
2022-11-07T16:53:25.864Z,8.64
2022-11-07T16:58:30.161Z,8.62
2022-11-07T17:03:33.102Z,8.59
2022-11-07T17:08:39.385Z,8.54
2022-11-07T17:13:41.563Z,8.45
2022-11-07T17:18:44.268Z,8.41
2022-11-07T17:23:46.141Z,8.38
2022-11-07T17:28:49.115Z,8.36
2022-11-07T17:33:51.245Z,8.32
2022-11-07T17:38:54.307Z,8.28
2022-11-07T17:43:58.017Z,8.22
2022-11-07T17:49:07.068Z,8.13
2022-11-07T17:54:12.356Z,8.01
2022-11-07T17:59:17.303Z,7.91
2022-11-07T18:04:19.180Z,7.80
2022-11-07T18:09:20.986Z,7.71
2022-11-07T18:14:22.837Z,7.59
2022-11-07T18:19:24.643Z,7.51
2022-11-07T18:24:26.621Z,7.40
2022-11-07T18:29:28.456Z,7.30
2022-11-07T18:34:30.340Z,7.16
2022-11-07T18:39:32.864Z,7.06
2022-11-07T18:44:34.660Z,6.96
2022-11-07T18:49:36.686Z,6.86
2022-11-07T18:54:38.572Z,6.77
2022-11-07T18:59:40.449Z,6.75
2022-11-07T19:04:44.098Z,6.76
2022-11-07T19:09:45.942Z,6.77
2022-11-07T19:14:47.820Z,6.83
2022-11-07T19:19:49.695Z,6.89
2022-11-07T19:24:51.579Z,6.93
2022-11-07T19:29:53.490Z,6.99
2022-11-07T19:34:55.742Z,7.03
2022-11-07T19:39:57.612Z,7.02
2022-11-07T19:44:59.706Z,6.99
2022-11-07T19:50:01.559Z,7.01
2022-11-07T19:55:04.582Z,6.99
2022-11-07T20:00:08.376Z,6.97
2022-11-07T20:05:11.790Z,6.92
2022-11-07T20:10:13.692Z,6.86
2022-11-07T20:15:16.206Z,6.81
2022-11-07T20:20:18.062Z,6.77
2022-11-07T20:25:20.250Z,6.72
2022-11-07T20:30:22.016Z,6.67
2022-11-07T20:35:23.897Z,6.66
2022-11-07T20:40:29.184Z,6.65
2022-11-07T20:45:31.376Z,6.62
2022-11-07T20:50:33.237Z,6.61
2022-11-07T20:55:39.872Z,6.64
2022-11-07T21:00:42.788Z,6.68
2022-11-07T21:05:44.699Z,6.71
2022-11-07T21:10:49.124Z,6.72
2022-11-07T21:15:51.398Z,6.71
2022-11-07T21:20:53.698Z,6.73
2022-11-07T21:25:55.878Z,6.76
2022-11-07T21:31:06.040Z,6.80
2022-11-07T21:36:20.000Z,6.87
2022-11-07T21:41:22.097Z,6.93
2022-11-07T21:46:26.639Z,6.96
2022-11-07T21:51:30.666Z,6.97
2022-11-07T21:56:38.892Z,6.96
2022-11-07T22:01:41.613Z,6.96
2022-11-07T22:06:45.718Z,6.94
2022-11-07T22:11:50.048Z,6.93
2022-11-07T22:16:55.097Z,6.88
2022-11-07T22:21:56.892Z,6.79
2022-11-07T22:27:08.780Z,6.70
2022-11-07T22:32:11.893Z,6.61
2022-11-07T22:37:13.721Z,6.53
2022-11-07T22:42:18.508Z,6.45
2022-11-07T22:47:28.997Z,6.40
2022-11-07T22:52:30.872Z,6.36
2022-11-07T22:57:32.752Z,6.30
2022-11-07T23:02:34.775Z,6.23
2022-11-07T23:07:36.910Z,6.19
2022-11-07T23:12:38.649Z,6.17
2022-11-07T23:17:40.968Z,6.15
2022-11-07T23:22:42.721Z,6.13
2022-11-07T23:27:44.526Z,6.09
2022-11-07T23:32:46.406Z,6.09
2022-11-07T23:37:50.032Z,6.06
2022-11-07T23:42:51.904Z,6.04
2022-11-07T23:48:12.524Z,6.02
2022-11-07T23:53:33.134Z,6.01
2022-11-07T23:58:53.618Z,6.02
